Flight Track Log - Related Links

Times and Time Zones

All times are in EDT time to prevent confusion due to time zone crossing. See the N707JC flight status page for this flight to view local times or setup timezone preferences in your user account.

Time Position Orientation Groundspeed Altitude Reporting Facility
EDT Latitude Longitude Course Direction KTS MPH feet Rate Location/Type
Tue 05:52:31 PM 43.1322 -73.9650 272° West 378 435 40,000  Level Boston Center
Tue 05:53:31 PM 43.1364 -74.1131 272° West 383 441 40,000  Level Boston Center
Tue 05:54:31 PM 43.1383 -74.2553 271° West 383 441 40,000  Level Boston Center
Tue 05:55:31 PM 43.1422 -74.4006 272° West 383 441 40,000  Level Boston Center
Tue 05:56:31 PM 43.1436 -74.5458 271° West 383 441 40,000  Level Boston Center
Tue 05:57:31 PM 43.1450 -74.6911 271° West 383 441 40,000  Level Boston Center
Tue 05:58:31 PM 43.1486 -74.8333 272° West 383 441 40,000  Level Boston Center
Tue 05:59:31 PM 43.1494 -74.9817 270° West 388 447 40,000  Level Boston Center
Tue 06:00:31 PM 43.1503 -75.1294 270° West 388 447 40,000  Level Boston Center
Tue 06:01:31 PM 43.1492 -75.2633 269° West 388 447 40,000  Level Boston Center
Tue 06:02:31 PM 43.1536 -75.4117 272° West 394 453 40,000  Level Boston Center
Tue 06:03:31 PM 43.1558 -75.5625 271° West 394 453 40,000  Level Boston Center
Tue 06:04:31 PM 43.1581 -75.7078 271° West 394 453 40,000  Level Boston Center
Tue 06:05:31 PM 43.1600 -75.8589 271° West 394 453 40,000  Level Boston Center
Tue 06:06:31 PM 43.1597 -76.0042 270° West 394 453 40,000  Level Boston Center
Tue 06:07:31 PM 43.1611 -76.1550 271° West 399 459 40,000 150 Level Boston Center
Tue 06:09:11 PM 43.1564 -76.4164 269° West 405 466 40,400 375 Climbing Cleveland Center
Tue 06:10:11 PM 43.1700 -76.5664 277° West 405 466 41,000 550 Climbing Cleveland Center
Tue 06:11:11 PM 43.1761 -76.6828 274° West 400 460 41,500 450 Climbing Cleveland Center
Tue 06:12:11 PM 43.1856 -76.8417 275° West 395 455 41,900 350 Climbing Cleveland Center
Tue 06:13:11 PM 43.1944 -76.9919 275° West 395 455 42,200 300 Climbing Cleveland Center
Tue 06:14:11 PM 43.2053 -77.1394 276° West 395 455 42,500 200 Climbing Cleveland Center
Tue 06:15:11 PM 43.2136 -77.2900 274° West 395 455 42,600 150 Climbing Cleveland Center
Tue 06:16:11 PM 43.2219 -77.4406 274° West 400 460 42,800 200 Climbing Cleveland Center
Tue 06:17:11 PM 43.2322 -77.5942 275° West 405 466 43,000 100 Climbing Cleveland Center
Tue 06:18:11 PM 43.2403 -77.7475 274° West 405 466 43,000  Level Cleveland Center
Tue 06:19:11 PM 43.2483 -77.9042 274° West 405 466 43,000  Level Cleveland Center
Tue 06:20:11 PM 43.2558 -78.0606 274° West 405 466 43,000  Level Cleveland Center
Tue 06:21:11 PM 43.2656 -78.2142 275° West 405 466 43,000  Level Cleveland Center
Tue 06:22:11 PM 43.2747 -78.3706 275° West 405 466 43,000  Level Cleveland Center
Tue 06:23:11 PM 43.2819 -78.5272 274° West 405 466 43,000  Level Cleveland Center
Tue 06:24:11 PM 43.2886 -78.6781 274° West 405 466 43,000  Level Cleveland Center
Tue 06:25:11 PM 43.2953 -78.8347 273° West 405 466 43,000  Level Cleveland Center
Tue 06:26:11 PM 43.3017 -78.9886 273° West 405 466 43,000  Level Cleveland Center
Tue 06:27:13 PM 43.3000 -79.1333 269° West 400 460 43,000  Level Toronto Center
Tue 06:28:13 PM 43.3000 -79.3167 270° West 410 472 43,000  Level Toronto Center
Tue 06:29:13 PM 43.3167 -79.4500 280° West 410 472 43,000  Level Toronto Center
Tue 06:30:13 PM 43.3167 -79.6167 270° West 410 472 43,000  Level Toronto Center
Tue 06:31:13 PM 43.3167 -79.7667 270° West 410 472 43,000  Level Toronto Center
Tue 06:32:13 PM 43.3333 -79.9333 278° West 410 472 43,000  Level Toronto Center
Tue 06:33:13 PM 43.3333 -80.0833 270° West 410 472 43,000  Level Toronto Center
Tue 06:34:13 PM 43.3500 -80.2500 278° West 420 483 43,000  Level Toronto Center
Tue 06:35:13 PM 43.3500 -80.3833 270° West 420 483 43,000  Level Toronto Center
Tue 06:36:13 PM 43.3500 -80.5667 270° West 420 483 43,000  Level Toronto Center
Tue 06:37:13 PM 43.3667 -80.7167 279° West 420 483 43,000  Level Toronto Center
Tue 06:38:13 PM 43.3500 -80.9000 263° West 420 483 43,000  Level Toronto Center
Tue 06:39:13 PM 43.3500 -81.0333 270° West 420 483 43,000  Level Toronto Center
Tue 06:40:13 PM 43.3667 -81.2167 277° West 420 483 43,000  Level Toronto Center
Tue 06:41:13 PM 43.3667 -81.3500 270° West 420 483 43,000  Level Toronto Center
Tue 06:42:13 PM 43.3667 -81.5167 270° West 420 483 43,000  Level Toronto Center
Tue 06:43:13 PM 43.3833 -81.7000 277° West 420 483 43,000  Level Toronto Center
Tue 06:44:13 PM 43.3833 -81.8333 270° West 420 483 43,000  Level Toronto Center
Tue 06:45:13 PM 43.3833 -82.0167 270° West 420 483 43,000  Level Toronto Center
Tue 06:46:13 PM 43.3833 -82.1500 270° West 420 483 43,000  Level Toronto Center
Tue 06:46:59 PM 43.4000 -82.2831 280° West 424 488 43,000  Level Cleveland Center
Tue 06:47:59 PM 43.4017 -82.4433 271° West 424 488 43,000  Level Cleveland Center
Tue 06:48:59 PM 43.4053 -82.6033 272° West 419 482 43,000  Level Cleveland Center
Tue 06:49:59 PM 43.4067 -82.7633 271° West 419 482 43,000  Level Cleveland Center
Tue 06:50:59 PM 43.4075 -82.9264 270° West 424 488 43,000  Level Cleveland Center
Tue 06:51:59 PM 43.4083 -83.0836 270° West 419 482 43,000  Level Cleveland Center
Tue 06:52:59 PM 43.4089 -83.2494 270° West 419 482 43,000  Level Cleveland Center
Tue 06:53:59 PM 43.4094 -83.4067 270° West 419 482 43,000  Level Cleveland Center
Tue 06:54:42 PM 43.4094 -83.5356 270° West 420 483 43,000  Level Minneapolis Center
Tue 06:55:13 PM 43.4000 -83.6000 259° West 420 483 43,000  Level Toronto Center
Tue 06:55:44 PM 43.4106 -83.6961 279° West 421 484 43,000  Level Minneapolis Center
Tue 06:56:46 PM 43.4111 -83.8572 270° West 423 487 43,000  Level Minneapolis Center
Tue 06:57:48 PM 43.4122 -84.0158 271° West 419 482 43,000  Level Minneapolis Center
Tue 06:58:50 PM 43.4122 -84.1764 270° West 421 484 43,000  Level Minneapolis Center
Tue 06:59:52 PM 43.4117 -84.3364 270° West 421 484 43,000  Level Minneapolis Center
Tue 07:00:54 PM 43.4106 -84.5258 270° West 417 480 43,000  Level Minneapolis Center
Tue 07:02:09 PM 43.4103 -84.7175 270° West 418 481 43,000  Level Minneapolis Center
Tue 07:03:11 PM 43.4092 -84.8769 270° West 419 482 43,000  Level Minneapolis Center
Tue 07:04:13 PM 43.4078 -85.0367 269° West 420 483 43,000  Level Minneapolis Center
Tue 07:05:01 PM 43.4081 -85.1650 270° West 422 486 43,000  Level Chicago Center
Tue 07:06:03 PM 43.4061 -85.3261 269° West 425 489 43,000  Level Chicago Center
Tue 07:07:06 PM 43.4039 -85.5172 269° West 420 483 43,000  Level Chicago Center
Tue 07:08:08 PM 43.4022 -85.6786 269° West 425 489 43,000  Level Chicago Center
Tue 07:09:10 PM 43.3994 -85.8392 269° West 426 490 43,000  Level Chicago Center
Tue 07:10:12 PM 43.3972 -85.9981 269° West 422 486 43,000  Level Chicago Center
Tue 07:11:14 PM 43.3939 -86.1914 269° West 425 489 43,000  Level Chicago Center
Tue 07:12:16 PM 43.3908 -86.3533 269° West 427 491 43,000  Level Chicago Center
Tue 07:13:18 PM 43.3878 -86.5161 269° West 429 494 43,000  Level Chicago Center
Tue 07:14:20 PM 43.3842 -86.6778 268° West 427 491 43,000  Level Chicago Center
Tue 07:15:23 PM 43.3803 -86.8433 268° West 431 496 43,000  Level Chicago Center
Tue 07:16:25 PM 43.3764 -87.0408 269° West 436 502 43,000  Level Chicago Center
Tue 07:17:27 PM 43.3719 -87.2058 268° West 435 501 43,000  Level Chicago Center
Tue 07:18:29 PM 43.3653 -87.3761 267° West 431 496 43,000  Level Chicago Center
Tue 07:19:31 PM 43.3600 -87.5436 268° West 437 503 43,000  Level Chicago Center
Tue 07:20:33 PM 43.3547 -87.7086 268° West 432 497 43,000  Level Chicago Center
Tue 07:21:35 PM 43.3489 -87.8731 267° West 431 496 43,000  Level Chicago Center
Tue 07:22:37 PM 43.3417 -88.0642 267° West 431 496 43,000  Level Chicago Center
Tue 07:24:41 PM 43.3281 -88.3961 267° West 429 494 43,000  Level Chicago Center
Tue 07:25:44 PM 43.3228 -88.5689 268° West 439 505 43,000  Level Chicago Center
Tue 07:26:46 PM 43.3161 -88.7375 267° West 437 503 43,000  Level Chicago Center
Tue 07:27:48 PM 43.3092 -88.9047 267° West 438 504 43,000  Level Chicago Center
Tue 07:28:50 PM 43.3025 -89.0717 267° West 437 503 43,000  Level Chicago Center
Tue 07:29:52 PM 43.2944 -89.2681 267° West 441 507 43,000  Level Chicago Center
Tue 07:30:54 PM 43.2872 -89.4336 267° West 436 502 43,000  Level Chicago Center
Tue 07:31:56 PM 43.2772 -89.6011 265° West 438 504 43,000  Level Chicago Center
Tue 07:32:58 PM 43.2692 -89.7694 266° West 441 507 43,000  Level Chicago Center
Tue 07:34:00 PM 43.2606 -89.9350 266° West 438 504 43,000  Level Chicago Center
Tue 07:35:03 PM 43.2514 -90.1011 266° West 436 502 43,000  Level Chicago Center
Tue 07:36:05 PM 43.2422 -90.2894 266° West 436 502 43,000  Level Chicago Center
Tue 07:37:07 PM 43.2333 -90.4533 266° West 437 503 43,000  Level Chicago Center
Tue 07:38:09 PM 43.2239 -90.6169 266° West 436 502 43,000  Level Chicago Center
Tue 07:39:11 PM 43.2147 -90.7797 266° West 435 501 43,000  Level Chicago Center
Tue 07:40:13 PM 43.2036 -90.9736 266° West 432 497 43,000  Level Chicago Center
Tue 07:41:15 PM 43.1944 -91.1358 266° West 433 498 43,000  Level Chicago Center
Tue 07:42:17 PM 43.1828 -91.2978 264° West 434 499 43,000  Level Chicago Center
Tue 07:43:19 PM 43.1731 -91.4617 265° West 438 504 43,000  Level Chicago Center
Tue 07:44:21 PM 43.1603 -91.6553 265° West 434 499 43,000  Level Chicago Center
Tue 07:45:24 PM 43.1489 -91.8164 265° West 434 499 43,000  Level Chicago Center
Tue 07:46:26 PM 43.1386 -91.9764 265° West 431 496 43,000  Level Chicago Center
Tue 07:47:28 PM 43.1264 -92.1367 264° West 431 496 43,000  Level Chicago Center
Tue 07:48:30 PM 43.1131 -92.3292 265° West 431 496 43,000  Level Chicago Center
Tue 07:49:32 PM 43.1014 -92.4892 264° West 429 494 43,000  Level Chicago Center
Tue 07:50:34 PM 43.0883 -92.6481 264° West 427 491 43,000  Level Chicago Center
Tue 07:51:36 PM 43.0772 -92.8050 265° West 422 486 43,000  Level Chicago Center
Tue 07:52:38 PM 43.0636 -92.9653 263° West 428 493 43,000  Level Chicago Center
Tue 07:53:40 PM 43.0492 -93.1531 264° West 422 486 43,000  Level Chicago Center
Tue 07:54:43 PM 43.0375 -93.3106 264° West 421 484 43,000  Level Chicago Center
Tue 07:55:45 PM 43.0239 -93.4675 263° West 420 483 43,000  Level Chicago Center
Tue 07:56:47 PM 43.0106 -93.6239 263° West 420 483 43,000  Level Chicago Center
Tue 07:58:13 PM 42.9917 -93.8736 264° West 418 481 43,000  Level Minneapolis Center
Tue 07:59:15 PM 42.9786 -94.0306 264° West 418 481 43,000  Level Minneapolis Center
Tue 08:00:20 PM 42.9653 -94.1867 263° West 419 482 43,000  Level Minneapolis Center
Tue 08:01:34 PM 42.9411 -94.4033 261° West 418 481 43,000  Level Minneapolis Center
Tue 08:02:37 PM 42.9278 -94.5592 263° West 418 481 43,000  Level Minneapolis Center
Tue 08:03:39 PM 42.9150 -94.7089 263° West 412 474 43,000  Level Minneapolis Center
Tue 08:04:41 PM 42.9006 -94.8661 263° West 417 480 43,000  Level Minneapolis Center
Tue 08:05:43 PM 42.8861 -95.0256 263° West 423 487 43,000  Level Minneapolis Center
Tue 08:06:45 PM 42.8672 -95.2139 262° West 420 483 43,000  Level Minneapolis Center
Tue 08:07:47 PM 42.8506 -95.3711 262° West 420 483 43,000  Level Minneapolis Center
Tue 08:08:49 PM 42.8353 -95.5289 263° West 421 484 43,000  Level Minneapolis Center
Tue 08:09:51 PM 42.8189 -95.6864 262° West 422 486 43,000  Level Minneapolis Center
Tue 08:10:53 PM 42.8028 -95.8467 262° West 425 489 43,000  Level Minneapolis Center
Tue 08:11:55 PM 42.7861 -96.0044 262° West 423 487 43,000  Level Minneapolis Center
Tue 08:12:57 PM 42.7658 -96.1950 262° West 424 488 43,000  Level Minneapolis Center
Tue 08:14:00 PM 42.7483 -96.3536 262° West 425 489 43,000  Level Minneapolis Center
Tue 08:15:02 PM 42.7306 -96.5125 261° West 425 489 43,000  Level Minneapolis Center
Tue 08:16:04 PM 42.7144 -96.6722 262° West 426 490 43,000  Level Minneapolis Center
Tue 08:17:06 PM 42.6961 -96.8286 261° West 422 486 43,000  Level Minneapolis Center
Tue 08:18:08 PM 42.6789 -96.9839 261° West 422 486 43,000  Level Minneapolis Center
Tue 08:19:10 PM 42.6572 -97.1711 261° West 420 483 43,000  Level Minneapolis Center
Tue 08:20:12 PM 42.6383 -97.3275 261° West 421 484 43,000  Level Minneapolis Center
Tue 08:21:14 PM 42.6203 -97.4850 261° West 423 487 43,000  Level Minneapolis Center
Tue 08:22:16 PM 42.6011 -97.6419 261° West 425 489 43,000  Level Minneapolis Center
Tue 08:23:18 PM 42.5822 -97.7989 261° West 423 487 43,000  Level Minneapolis Center
Tue 08:24:20 PM 42.5606 -97.9828 261° West 426 490 43,000  Level Minneapolis Center
Tue 08:25:22 PM 42.5400 -98.1408 260° West 426 490 43,000  Level Minneapolis Center
Tue 08:26:24 PM 42.5206 -98.3006 261° West 430 495 43,000  Level Minneapolis Center
Tue 08:27:27 PM 42.5006 -98.4589 260° West 429 494 43,000  Level Minneapolis Center
Tue 08:28:29 PM 42.4803 -98.6181 260° West 430 495 43,000  Level Minneapolis Center
Tue 08:29:31 PM 42.4231 -98.7936 246° West 431 496 43,000  Level Minneapolis Center
Tue 08:30:33 PM 42.3606 -98.9325 239° Southwest 432 497 43,000  Level Minneapolis Center
Tue 08:31:35 PM 42.2989 -99.0714 239° Southwest 432 497 43,000  Level Minneapolis Center
Tue 08:32:37 PM 42.2361 -99.2092 238° Southwest 432 497 43,000  Level Minneapolis Center
Tue 08:33:39 PM 42.1739 -99.3469 239° Southwest 433 498 43,000  Level Minneapolis Center
Tue 08:34:41 PM 42.0983 -99.5106 238° Southwest 431 496 43,000  Level Minneapolis Center
Tue 08:35:43 PM 42.0358 -99.6478 239° Southwest 431 496 43,000  Level Minneapolis Center
Tue 08:36:45 PM 41.9736 -99.7842 238° Southwest 430 495 43,000  Level Minneapolis Center
Tue 08:37:47 PM 41.9097 -99.9217 238° Southwest 433 498 43,000  Level Minneapolis Center
Tue 08:38:50 PM 41.8464 -100.0594 238° Southwest 434 499 43,000  Level Minneapolis Center
Tue 08:44:20 PM 41.5014 -100.8420 238° Southwest 430 495 43,000  Level FlightAware ADS-B
Tue 08:44:53 PM 41.4708 -100.9190 242° Southwest 431 496 43,000  Level FlightAware ADS-B
Tue 08:45:23 PM 41.4416 -100.9910 242° Southwest 432 497 43,000  Level FlightAware ADS-B
Tue 08:45:55 PM 41.4122 -101.0640 242° Southwest 432 497 43,000  Level FlightAware ADS-B
Tue 08:46:25 PM 41.3840 -101.1340 242° Southwest 431 496 43,000  Level FlightAware ADS-B
Tue 08:46:55 PM 41.3554 -101.2050 242° Southwest 430 495 43,000  Level FlightAware ADS-B
Tue 08:47:32 PM 41.3210 -101.2900 242° Southwest 429 494 43,000  Level FlightAware ADS-B
Tue 08:48:13 PM 41.2823 -101.3850 242° Southwest 429 494 43,000  Level FlightAware ADS-B
Tue 08:48:52 PM 41.2458 -101.4750 242° Southwest 429 494 43,000  Level FlightAware ADS-B
Tue 08:49:23 PM 41.2169 -101.5460 242° Southwest 428 493 43,000  Level FlightAware ADS-B
Tue 08:49:53 PM 41.1878 -101.6170 241° Southwest 429 494 43,000  Level FlightAware ADS-B
Tue 08:50:24 PM 41.1589 -101.6880 242° Southwest 430 495 43,000  Level FlightAware ADS-B
Tue 08:50:54 PM 41.1302 -101.7580 241° Southwest 430 495 43,000  Level FlightAware ADS-B
Tue 08:51:40 PM 41.0871 -101.8630 241° Southwest 431 496 43,000  Level FlightAware ADS-B
Tue 08:53:05 PM 41.0060 -102.0590 241° Southwest 427 491 43,000  Level FlightAware ADS-B
Tue 08:53:46 PM 40.9781 -102.1570 249° West 414 476 43,000  Level FlightAware ADS-B
Tue 08:54:03 PM 40.9712 -102.1990 258° West 410 472 43,000 250 Level FlightAware ADS-B
Tue 08:54:34 PM 40.9613 -102.2740 260° West 405 466 43,200 381 Climbing FlightAware ADS-B
Tue 08:55:06 PM 40.9520 -102.3530 261° West 407 468 43,400 387 Climbing FlightAware ADS-B
Tue 08:55:36 PM 40.9443 -102.4280 262° West 410 472 43,600 393 Climbing FlightAware ADS-B
Tue 08:56:07 PM 40.9366 -102.5040 262° West 410 472 43,800 484 Climbing FlightAware ADS-B
Tue 08:56:38 PM 40.9308 -102.5800 264° West 407 468 44,100 590 Climbing FlightAware ADS-B
Tue 08:57:08 PM 40.9263 -102.6540 265° West 405 466 44,400 600 Climbing FlightAware ADS-B
Tue 08:57:38 PM 40.9232 -102.7290 267° West 401 461 44,700 462 Climbing FlightAware ADS-B
Tue 08:58:13 PM 40.9198 -102.8140 267° West 401 461 44,900 277 Climbing FlightAware ADS-B
Tue 08:58:43 PM 40.9161 -102.8880 266° West 401 461 45,000 98 Climbing FlightAware ADS-B
Tue 08:59:14 PM 40.9126 -102.9620 266° West 399 459 45,000  Level FlightAware ADS-B
Tue 08:59:37 PM 40.9104 -103.0180 267° West 399 459 45,000  Level FlightAware ADS-B
Tue 09:00:07 PM 40.9074 -103.0910 267° West 395 455 45,000  Level FlightAware ADS-B
Tue 09:00:38 PM 40.9048 -103.1640 267° West 394 453 45,000  Level FlightAware ADS-B
Tue 09:01:10 PM 40.9018 -103.2400 267° West 393 452 45,000  Level FlightAware ADS-B
Tue 09:01:40 PM 40.8987 -103.3130 267° West 391 450 45,000  Level FlightAware ADS-B
Tue 09:02:10 PM 40.8957 -103.3850 267° West 391 450 45,000  Level FlightAware ADS-B
Tue 09:02:42 PM 40.8926 -103.4590 267° West 394 453 45,000  Level FlightAware ADS-B
Tue 09:03:12 PM 40.8892 -103.5330 267° West 399 459 45,000  Level FlightAware ADS-B
Tue 09:03:43 PM 40.8858 -103.6070 267° West 404 465 45,000  Level FlightAware ADS-B
Tue 09:03:53 PM 40.8845 -103.6320 266° West 404 465 45,000  Level FlightAware ADS-B
Tue 09:04:07 PM 40.8803 -103.6660 261° West 404 465 45,000  Level FlightAware ADS-B
Tue 09:04:15 PM 40.8760 -103.6860 254° West 406 467 45,000  Level FlightAware ADS-B
Tue 09:04:24 PM 40.8708 -103.7060 251° West 406 467 45,000  Level FlightAware ADS-B
Tue 09:04:33 PM 40.8641 -103.7270 247° West 408 470 45,000  Level FlightAware ADS-B
Tue 09:05:03 PM 40.8384 -103.7940 243° Southwest 410 472 45,000  Level FlightAware ADS-B
Tue 09:05:34 PM 40.8121 -103.8620 243° Southwest 411 473 45,000  Level FlightAware ADS-B
Tue 09:06:04 PM 40.7862 -103.9290 243° Southwest 411 473 45,000  Level FlightAware ADS-B
Tue 09:06:34 PM 40.7601 -103.9950 242° Southwest 408 470 45,000  Level FlightAware ADS-B
Tue 09:07:04 PM 40.7345 -104.0610 243° Southwest 406 467 45,000  Level FlightAware ADS-B
Tue 09:07:34 PM 40.7087 -104.1270 243° Southwest 407 468 45,000  Level FlightAware ADS-B
Tue 09:08:08 PM 40.6794 -104.2010 242° Southwest 407 468 45,000  Level FlightAware ADS-B
Tue 09:08:38 PM 40.6532 -104.2680 243° Southwest 409 471 45,000  Level FlightAware ADS-B
Tue 09:09:08 PM 40.6268 -104.3350 243° Southwest 411 473 45,000  Level FlightAware ADS-B
Tue 09:09:38 PM 40.6004 -104.4020 243° Southwest 412 474 45,000  Level FlightAware ADS-B
Tue 09:10:09 PM 40.5740 -104.4690 243° Southwest 411 473 45,000  Level FlightAware ADS-B
Tue 09:10:39 PM 40.5475 -104.5360 243° Southwest 414 476 45,000  Level FlightAware ADS-B
Tue 09:11:09 PM 40.5207 -104.6030 242° Southwest 415 478 45,000  Level FlightAware ADS-B
Tue 09:11:40 PM 40.4935 -104.6710 242° Southwest 418 481 45,000  Level FlightAware ADS-B
Tue 09:12:11 PM 40.4655 -104.7410 242° Southwest 421 484 45,000  Level FlightAware ADS-B
Tue 09:12:41 PM 40.4387 -104.8090 243° Southwest 421 484 45,000  Level FlightAware ADS-B
Tue 09:13:11 PM 40.4112 -104.8770 242° Southwest 423 487 45,000  Level FlightAware ADS-B
Tue 09:13:41 PM 40.3835 -104.9460 242° Southwest 423 487 45,000  Level FlightAware ADS-B
Tue 09:14:11 PM 40.3560 -105.0140 242° Southwest 422 486 45,000  Level FlightAware ADS-B
Tue 09:14:42 PM 40.3283 -105.0830 242° Southwest 421 484 45,000  Level FlightAware ADS-B
Tue 09:15:12 PM 40.3006 -105.1510 242° Southwest 420 483 45,000  Level FlightAware ADS-B
Tue 09:15:44 PM 40.2717 -105.2220 242° Southwest 420 483 45,000  Level FlightAware ADS-B
Tue 09:16:15 PM 40.2434 -105.2920 242° Southwest 421 484 45,000  Level FlightAware ADS-B
Tue 09:16:46 PM 40.2151 -105.3620 242° Southwest 425 489 45,000  Level FlightAware ADS-B
Tue 09:17:20 PM 40.1835 -105.4390 242° Southwest 428 493 45,000  Level FlightAware ADS-B
Tue 09:17:56 PM 40.1498 -105.5210 242° Southwest 429 494 45,000  Level FlightAware ADS-B
Tue 09:18:27 PM 40.1208 -105.5920 242° Southwest 425 489 45,000  Level FlightAware ADS-B
Tue 09:18:59 PM 40.0920 -105.6620 242° Southwest 417 480 45,000  Level FlightAware ADS-B
Tue 09:19:30 PM 40.0634 -105.7310 242° Southwest 416 479 45,000  Level FlightAware ADS-B
Tue 09:19:54 PM 40.0422 -105.7840 242° Southwest 422 486 45,000  Level FlightAware ADS-B
Tue 09:20:24 PM 40.0206 -105.8570 249° West 426 490 45,000  Level FlightAware ADS-B
Tue 09:20:58 PM 39.9976 -105.9380 250° West 431 496 45,000  Level FlightAware ADS-B
Tue 09:21:16 PM 39.9847 -105.9820 249° West 434 499 45,000  Level FlightAware ADS-B
Tue 09:21:47 PM 39.9612 -106.0560 248° West 430 495 45,000  Level FlightAware ADS-B
Tue 09:22:17 PM 39.9380 -106.1290 248° West 434 499 45,000  Level FlightAware ADS-B
Tue 09:22:49 PM 39.9142 -106.2030 247° West 424 488 45,000  Level FlightAware ADS-B
Tue 09:23:19 PM 39.8920 -106.2740 248° West 421 484 45,000  Level FlightAware ADS-B
Tue 09:23:49 PM 39.8701 -106.3440 248° West 418 481 45,000  Level FlightAware ADS-B
Tue 09:24:20 PM 39.8477 -106.4150 248° West 418 481 45,000  Level FlightAware ADS-B
Tue 09:24:50 PM 39.8250 -106.4870 248° West 418 481 45,000  Level FlightAware ADS-B
Tue 09:25:21 PM 39.8020 -106.5580 247° West 423 487 45,000  Level FlightAware ADS-B
Tue 09:25:51 PM 39.7791 -106.6280 247° West 423 487 45,000  Level FlightAware ADS-B
Tue 09:26:21 PM 39.7565 -106.6990 248° West 421 484 45,000  Level FlightAware ADS-B
Tue 09:26:51 PM 39.7343 -106.7690 248° West 423 487 45,000  Level FlightAware ADS-B
Tue 09:27:22 PM 39.7108 -106.8410 247° West 421 484 45,000  Level FlightAware ADS-B
Tue 09:27:50 PM 39.6897 -106.9050 247° West 418 481 45,000  Level FlightAware ADS-B
Tue 09:28:20 PM 39.6616 -106.9710 241° Southwest 419 482 45,000  Level FlightAware ADS-B
Tue 09:28:51 PM 39.6318 -107.0380 240° Southwest 421 484 45,000  Level FlightAware ADS-B
Tue 09:29:21 PM 39.6026 -107.1040 240° Southwest 423 487 45,000  Level FlightAware ADS-B
Tue 09:29:55 PM 39.5699 -107.1770 240° Southwest 422 486 45,000  Level FlightAware ADS-B
Tue 09:30:26 PM 39.5397 -107.2450 240° Southwest 422 486 45,000  Level FlightAware ADS-B
Tue 09:30:57 PM 39.5096 -107.3130 240° Southwest 422 486 45,000  Level FlightAware ADS-B
Tue 09:31:27 PM 39.4794 -107.3810 240° Southwest 423 487 45,000  Level FlightAware ADS-B
Tue 09:31:58 PM 39.4493 -107.4480 240° Southwest 424 488 45,000  Level FlightAware ADS-B
Tue 09:32:32 PM 39.4158 -107.5220 240° Southwest 422 486 45,000  Level FlightAware ADS-B
Tue 09:33:04 PM 39.3849 -107.5910 240° Southwest 423 487 45,000  Level FlightAware ADS-B
Tue 09:33:34 PM 39.3552 -107.6570 240° Southwest 423 487 45,000  Level FlightAware ADS-B
Tue 09:34:05 PM 39.3250 -107.7240 240° Southwest 422 486 45,000  Level FlightAware ADS-B
Tue 09:34:35 PM 39.2956 -107.7890 240° Southwest 421 484 45,000  Level FlightAware ADS-B
Tue 09:35:05 PM 39.2655 -107.8550 240° Southwest 423 487 45,000  Level FlightAware ADS-B
Tue 09:35:35 PM 39.2357 -107.9210 240° Southwest 427 491 45,000  Level FlightAware ADS-B
Tue 09:36:07 PM 39.2050 -107.9880 239° Southwest 424 488 45,000  Level FlightAware ADS-B
Tue 09:36:19 PM 39.1922 -108.0170 240° Southwest 427 491 45,000  Level FlightAware ADS-B
Tue 09:37:29 PM 39.1240 -108.1660 239° Southwest 420 483 45,000  Level FlightAware ADS-B
Tue 09:38:12 PM 39.0820 -108.2570 239° Southwest 416 479 45,000  Level FlightAware ADS-B
Tue 09:38:56 PM 39.0400 -108.3490 240° Southwest 418 481 45,000  Level FlightAware ADS-B
Tue 09:39:38 PM 38.9980 -108.4390 239° Southwest 422 486 45,000  Level FlightAware ADS-B
Tue 09:40:19 PM 38.9560 -108.5290 239° Southwest 421 484 45,000  Level FlightAware ADS-B
Tue 09:41:04 PM 38.9130 -108.6230 240° Southwest 415 478 45,000  Level FlightAware ADS-B
Tue 09:41:43 PM 38.8740 -108.7050 239° Southwest 417 480 45,000  Level FlightAware ADS-B
Tue 09:42:27 PM 38.8290 -108.8030 240° Southwest 421 484 45,000  Level FlightAware ADS-B
Tue 09:43:04 PM 38.7930 -108.8810 239° Southwest 424 488 45,000  Level FlightAware ADS-B
Tue 09:43:49 PM 38.7480 -108.9760 239° Southwest 422 486 45,000  Level FlightAware ADS-B
Tue 09:44:31 PM 38.7040 -109.0690 239° Southwest 424 488 45,000  Level FlightAware ADS-B
Tue 09:45:08 PM 38.6680 -109.1450 239° Southwest 418 481 45,000  Level FlightAware ADS-B
Tue 09:45:55 PM 38.6220 -109.2420 239° Southwest 415 478 45,000  Level FlightAware ADS-B
Tue 09:46:36 PM 38.5790 -109.3330 239° Southwest 418 481 45,000  Level FlightAware ADS-B
Tue 09:47:20 PM 38.5360 -109.4230 239° Southwest 420 483 45,000  Level FlightAware ADS-B
Tue 09:48:01 PM 38.4950 -109.5080 238° Southwest 418 481 45,000  Level FlightAware ADS-B
Tue 09:48:42 PM 38.4530 -109.5960 239° Southwest 413 475 45,000  Level FlightAware ADS-B
Tue 09:49:26 PM 38.4090 -109.6870 238° Southwest 410 472 45,000  Level FlightAware ADS-B
Tue 09:50:06 PM 38.3710 -109.7680 239° Southwest 404 465 45,000  Level FlightAware ADS-B
Tue 09:50:49 PM 38.3280 -109.8560 238° Southwest 403 464 45,000  Level FlightAware ADS-B
Tue 09:51:32 PM 38.2870 -109.9410 238° Southwest 411 473 45,000  Level FlightAware ADS-B
Tue 09:52:14 PM 38.2430 -110.0310 238° Southwest 408 470 45,000  Level FlightAware ADS-B
Tue 09:52:54 PM 38.2050 -110.1090 238° Southwest 408 470 45,000  Level FlightAware ADS-B
Tue 09:53:36 PM 38.1630 -110.1950 238° Southwest 411 473 45,000  Level FlightAware ADS-B
Tue 09:54:19 PM 38.1190 -110.2860 238° Southwest 414 476 45,000  Level FlightAware ADS-B
Tue 09:55:04 PM 38.0740 -110.3770 238° Southwest 412 474 45,000  Level FlightAware ADS-B
Tue 09:55:44 PM 38.0340 -110.4590 238° Southwest 410 472 45,000  Level FlightAware ADS-B
Tue 09:56:21 PM 37.9970 -110.5340 238° Southwest 402 463 45,000  Level FlightAware ADS-B
Tue 09:57:08 PM 37.9520 -110.6250 238° Southwest 401 461 45,000  Level FlightAware ADS-B
Tue 09:57:50 PM 37.9100 -110.7100 238° Southwest 405 466 45,000  Level FlightAware ADS-B
Tue 09:58:33 PM 37.8670 -110.7970 238° Southwest 406 467 45,000  Level FlightAware ADS-B
Tue 09:59:14 PM 37.8260 -110.8790 238° Southwest 405 466 45,000  Level FlightAware ADS-B
Tue 09:59:53 PM 37.7870 -110.9570 238° Southwest 404 465 45,000  Level FlightAware ADS-B
Tue 10:00:52 PM 37.7290 -111.0730 238° Southwest 410 472 45,000  Level FlightAware ADS-B
Tue 10:01:34 PM 37.6840 -111.1630 238° Southwest 416 479 45,000  Level FlightAware ADS-B
Tue 10:02:14 PM 37.6450 -111.2400 237° Southwest 419 482 45,000  Level FlightAware ADS-B
Tue 10:03:00 PM 37.5960 -111.3360 237° Southwest 419 482 45,000  Level FlightAware ADS-B
Tue 10:03:39 PM 37.5550 -111.4180 238° Southwest 415 478 45,000  Level FlightAware ADS-B
Tue 10:04:24 PM 37.5100 -111.5070 238° Southwest 414 476 45,000  Level FlightAware ADS-B
Tue 10:05:04 PM 37.4680 -111.5890 237° Southwest 415 478 45,000  Level FlightAware ADS-B
Tue 10:05:48 PM 37.4230 -111.6780 238° Southwest 416 479 45,000  Level FlightAware ADS-B
Tue 10:06:29 PM 37.3790 -111.7620 237° Southwest 409 471 45,000  Level FlightAware ADS-B
Tue 10:07:09 PM 37.3390 -111.8410 238° Southwest 404 465 45,000  Level FlightAware ADS-B
Tue 10:07:53 PM 37.2940 -111.9290 237° Southwest 399 459 45,000 -214 Level FlightAware ADS-B
Tue 10:08:33 PM 37.2540 -112.0050 237° Southwest 404 465 44,700 -500 Descending FlightAware ADS-B
Tue 10:09:17 PM 37.2100 -112.0920 238° Southwest 404 465 44,300 -500 Descending FlightAware ADS-B
Tue 10:09:57 PM 37.1690 -112.1700 237° Southwest 398 458 44,000 -429 Descending FlightAware ADS-B
Tue 10:10:41 PM 37.1240 -112.2570 237° Southwest 394 453 43,700 -349 Descending FlightAware ADS-B
Tue 10:11:23 PM 37.0840 -112.3340 237° Southwest 388 447 43,500 -366 Descending FlightAware ADS-B
Tue 10:12:03 PM 37.0440 -112.4100 237° Southwest 392 451 43,200 -357 Descending FlightAware ADS-B
Tue 10:12:47 PM 37.0010 -112.4930 237° Southwest 396 456 43,000 -143 Descending FlightAware ADS-B
Tue 10:13:27 PM 36.9630 -112.5650 237° Southwest 398 458 43,000  Level FlightAware ADS-B
Tue 10:14:11 PM 36.9160 -112.6530 236° Southwest 397 457 43,000  Level FlightAware ADS-B
Tue 10:14:51 PM 36.8780 -112.7270 237° Southwest 394 453 43,000  Level FlightAware ADS-B
Tue 10:15:47 PM 36.8200 -112.8360 236° Southwest 395 455 43,000  Level FlightAware ADS-B
Tue 10:16:29 PM 36.7790 -112.9140 237° Southwest 397 457 43,000  Level FlightAware ADS-B
Tue 10:17:13 PM 36.7330 -113.0000 236° Southwest 394 453 43,000  Level FlightAware ADS-B
Tue 10:17:55 PM 36.6930 -113.0760 237° Southwest 386 444 43,000  Level FlightAware ADS-B
Tue 10:18:37 PM 36.6500 -113.1560 236° Southwest 382 440 43,000  Level FlightAware ADS-B
Tue 10:19:17 PM 36.6110 -113.2290 236° Southwest 379 436 43,000  Level FlightAware ADS-B
Tue 10:19:59 PM 36.5710 -113.3030 236° Southwest 385 443 43,000  Level FlightAware ADS-B
Tue 10:20:25 PM 36.5450 -113.3530 237° Southwest 388 447 43,000  Level FlightAware ADS-B
Tue 10:21:17 PM 36.4920 -113.4500 236° Southwest 389 448 43,000  Level FlightAware ADS-B
Tue 10:22:01 PM 36.4490 -113.5310 237° Southwest 388 447 43,000  Level FlightAware ADS-B
Tue 10:22:43 PM 36.4070 -113.6090 236° Southwest 391 450 43,000  Level FlightAware ADS-B
Tue 10:23:23 PM 36.3660 -113.6850 236° Southwest 395 455 43,000  Level FlightAware ADS-B
Tue 10:24:07 PM 36.3200 -113.7680 235° Southwest 399 459 43,000  Level FlightAware ADS-B
Tue 10:24:47 PM 36.2800 -113.8420 236° Southwest 399 459 43,000  Level FlightAware ADS-B
Tue 10:25:29 PM 36.2370 -113.9200 236° Southwest 385 443 43,000  Level FlightAware ADS-B
Tue 10:26:09 PM 36.1970 -113.9940 236° Southwest 380 437 43,000 -70 Level FlightAware ADS-B
Tue 10:26:55 PM 36.1510 -114.0780 236° Southwest 383 441 42,900 -558 Descending FlightAware ADS-B
Tue 10:27:35 PM 36.1120 -114.1490 236° Southwest 394 453 42,200 -940 Descending FlightAware ADS-B
Tue 10:28:18 PM 36.0680 -114.2290 236° Southwest 393 452 41,600 -857 Descending FlightAware ADS-B
Tue 10:28:59 PM 36.0260 -114.3050 236° Southwest 383 441 41,000 -988 Descending FlightAware ADS-B
Tue 10:29:43 PM 35.9820 -114.3840 235° Southwest 375 432 40,200 -960 Descending FlightAware ADS-B
Tue 10:30:39 PM 35.9280 -114.4830 236° Southwest 379 436 39,400 -957 Descending FlightAware ADS-B
Tue 10:31:17 PM 35.8900 -114.5510 235° Southwest 379 436 38,700 -1,024 Descending FlightAware ADS-B
Tue 10:32:01 PM 35.8470 -114.6280 235° Southwest 381 438 38,000 -1,000 Descending FlightAware ADS-B
Tue 10:32:41 PM 35.8060 -114.7010 235° Southwest 378 435 37,300 -988 Descending FlightAware ADS-B
Tue 10:33:26 PM 35.7630 -114.7780 235° Southwest 382 440 36,600 -977 Descending FlightAware ADS-B
Tue 10:34:07 PM 35.7190 -114.8560 235° Southwest 396 456 35,900 -929 Descending FlightAware ADS-B
Tue 10:34:50 PM 35.6740 -114.9350 235° Southwest 396 456 35,300 -828 Descending FlightAware ADS-B
Tue 10:35:34 PM 35.6290 -115.0170 236° Southwest 396 456 34,700 -786 Descending FlightAware ADS-B
Tue 10:36:14 PM 35.5870 -115.0900 235° Southwest 406 467 34,200 -500 Descending FlightAware ADS-B
Tue 10:36:58 PM 35.5390 -115.1760 236° Southwest 410 472 34,000 -145 Descending FlightAware ADS-B
Tue 10:37:37 PM 35.4980 -115.2480 235° Southwest 410 472 34,000  Level FlightAware ADS-B
Tue 10:38:21 PM 35.4490 -115.3340 235° Southwest 408 470 34,000  Level FlightAware ADS-B
Tue 10:39:01 PM 35.4070 -115.4080 235° Southwest 402 463 34,000  Level FlightAware ADS-B
Tue 10:39:45 PM 35.3590 -115.4930 235° Southwest 407 468 34,000 -278 Level FlightAware ADS-B
Tue 10:40:49 PM 35.2900 -115.6120 235° Southwest 406 467 33,500 -833 Descending FlightAware ADS-B
Tue 10:41:33 PM 35.2420 -115.6960 235° Southwest 414 476 32,500 -1,286 Descending FlightAware ADS-B
Tue 10:42:13 PM 35.1990 -115.7700 235° Southwest 418 481 31,700 -1,350 Descending FlightAware ADS-B
Tue 10:42:53 PM 35.1530 -115.8510 235° Southwest 421 484 30,700 -1,500 Descending FlightAware ADS-B
Tue 10:43:37 PM 35.1040 -115.9340 234° Southwest 419 482 29,600 -1,429 Descending FlightAware ADS-B
Tue 10:44:17 PM 35.0590 -116.0130 235° Southwest 415 478 28,700 -1,357 Descending FlightAware ADS-B
Tue 10:45:01 PM 35.0130 -116.0930 235° Southwest 409 471 27,700 -1,394 Descending FlightAware ADS-B
Tue 10:45:56 PM 34.9520 -116.1970 234° Southwest 404 465 26,400 -840 Descending FlightAware ADS-B
Tue 10:46:41 PM 34.9090 -116.2690 234° Southwest 402 463 26,300 -74 Descending FlightAware ADS-B
Tue 10:47:17 PM 34.8760 -116.3260 235° Southwest 402 463 26,300 -1,416 Level FlightAware ADS-B
Tue 10:48:10 PM 34.8140 -116.4330 235° Southwest 393 452 24,200 -1,235 Descending FlightAware ADS-B
Tue 10:48:59 PM 34.7690 -116.5070 234° Southwest 393 452 24,200  Level FlightAware ADS-B
Tue 10:49:36 PM 34.7360 -116.5630 234° Southwest 393 452 24,200  Level FlightAware ADS-B
Tue 10:50:25 PM 34.6910 -116.6380 234° Southwest 393 452 24,200 -1,467 Level FlightAware ADS-B
Tue 10:51:06 PM 34.7620 -116.8200 295° West 386 444 22,000 -1,650 Descending FlightAware ADS-B
Tue 10:51:45 PM 34.7540 -116.9020 263° West 388 447 22,000 -286 Level FlightAware ADS-B
Tue 10:52:30 PM 34.7440 -116.9980 263° West 384 442 21,600 -847 Descending FlightAware ADS-B
Tue 10:53:10 PM 34.7350 -117.0860 263° West 373 429 20,800 -1,171 Descending FlightAware ADS-B
Tue 10:53:52 PM 34.7260 -117.1730 263° West 366 421 20,000 -1,186 Descending FlightAware ADS-B
Tue 10:54:36 PM 34.7170 -117.2600 263° West 358 412 19,100 -1,224 Descending FlightAware ADS-B
Tue 10:55:30 PM 34.7060 -117.3680 263° West 349 402 18,000 -1,188 Descending FlightAware ADS-B
Tue 10:56:12 PM 34.6980 -117.4460 263° West 345 397 17,200 -1,143 Descending FlightAware ADS-B
Tue 10:56:54 PM 34.6890 -117.5270 262° West 341 392 16,400 -1,143 Descending FlightAware ADS-B
Tue 10:57:36 PM 34.6800 -117.6090 262° West 339 390 15,600 -1,171 Descending FlightAware ADS-B
Tue 10:58:16 PM 34.6730 -117.6830 263° West 341 392 14,800 -1,256 Descending FlightAware ADS-B
Tue 10:59:02 PM 34.6630 -117.7710 262° West 339 390 13,800 -1,244 Descending FlightAware ADS-B
Tue 10:59:38 PM 34.6530 -117.8380 260° West 330 380 13,100 -1,171 Descending FlightAware ADS-B
Tue 11:00:24 PM 34.6400 -117.9170 259° West 315 362 12,200 -1,200 Descending FlightAware ADS-B
Tue 11:01:08 PM 34.6270 -117.9930 258° West 293 337 11,300 -621 Descending FlightAware ADS-B
Tue 11:01:51 PM 34.6170 -118.0530 259° West 287 330 11,300  Level FlightAware ADS-B
Tue 11:02:27 PM 34.6090 -118.1010 259° West 287 330 11,300 -1,522 Level FlightAware ADS-B
Tue 11:02:58 PM 34.6000 -118.1590 259° West 266 306 9,600 -2,073 Descending FlightAware ADS-B
Tue 11:03:22 PM 34.5970 -118.1770 259° West 266 306 9,400 -964 Descending FlightAware ADS-B
Tue 11:03:54 PM 34.5850 -118.2430 258° West 270 311 8,700 -1,250 Descending FlightAware ADS-B
Tue 11:04:10 PM 34.5810 -118.2660 258° West 270 311 8,400 -837 Descending FlightAware ADS-B
Tue 11:04:37 PM 34.5750 -118.3020 259° West 262 302 8,100 -327 Descending FlightAware ADS-B
Tue 11:05:05 PM 34.5690 -118.3360 258° West 262 302 8,100  Level FlightAware ADS-B
Tue 11:05:31 PM 34.5640 -118.3680 259° West 262 302 8,100  Level FlightAware ADS-B
Tue 11:05:59 PM 34.5580 -118.4030 258° West 262 302 8,100  Level FlightAware ADS-B
Tue 11:06:11 PM 34.5550 -118.4170 255° West 262 302 8,100  Level FlightAware ADS-B
Tue 11:06:35 PM 34.5500 -118.4470 259° West 262 302 8,100 -674 Level FlightAware ADS-B
Tue 11:07:40 PM 34.4580 -118.4870 200° South 240 276 7,100 -767 Descending FlightAware ADS-B
Tue 11:08:01 PM 34.4430 -118.4960 206° Southwest 199 229 7,000 -122 Descending FlightAware ADS-B
Tue 11:08:29 PM 34.4240 -118.5080 208° Southwest 199 229 7,000 -1,374 Level FlightAware ADS-B
Tue 11:10:12 PM 34.3370 -118.5030 177° South 145 167 4,000 -1,378 Descending FlightAware ADS-B
Tue 11:10:44 PM 34.3190 -118.5010 175° South 145 167 3,900 -1,062 Descending FlightAware ADS-B
Tue 11:12:05 PM 34.2667 -118.5000 175° South 116 133 2,000 -1,106 Descending Southern California TRACON
Tue 11:13:05 PM 34.2333 -118.5000 180° South 120 138 1,300 -700 Descending Southern California TRACON
Tue 11:15:00 PM 34.2098 -118.4900 180° South  Level Estimated
Tue 11:22:00 PM 34.2098 -118.4900 180° South  Level Estimated

Login

Don't have an account? Register now (free) for customized features, flight alerts, and more!